Time;durP1;ratioP1;P1;durP2;ratioP2;P2;SDS_P1;SDS_P2;PMS_P1;PMS_P2;Temp;Humidity;BMP_temperature;BMP_pressure;BME280_temperature;BME280_humidity;BME280_pressure;Samples;Min_cycle;Max_cycle;Signal;HPM_P1;HPM_P2
2023/07/05 00:01:13;;;;;;;5.32;3.00;;;;;;;19.38;81.61;100229.53;5039872;28;20132;-61
2023/07/05 00:03:39;;;;;;;4.00;2.83;;;;;;;19.41;81.21;100224.09;5034676;28;20057;-61
2023/07/05 00:06:05;;;;;;;3.88;2.80;;;;;;;19.43;80.50;100205.69;5039029;28;20176;-61
2023/07/05 00:08:32;;;;;;;4.10;2.58;;;;;;;19.45;80.12;100194.19;5035440;28;20072;-61
2023/07/05 00:11:03;;;;;;;4.15;2.17;;;;;;;19.48;80.05;100203.66;5039745;28;20029;-61
2023/07/05 00:13:28;;;;;;;5.03;2.53;;;;;;;19.48;79.86;100199.28;5035104;28;20072;-61
2023/07/05 00:15:54;;;;;;;3.88;2.85;;;;;;;19.49;79.95;100184.41;5036749;28;20608;-61
2023/07/05 00:18:19;;;;;;;4.70;2.67;;;;;;;19.49;79.61;100179.16;5038078;28;20044;-61
2023/07/05 00:20:44;;;;;;;6.32;2.35;;;;;;;19.48;79.82;100180.06;5037737;28;20135;-61
2023/07/05 00:23:10;;;;;;;6.07;2.58;;;;;;;19.46;79.88;100161.81;5040069;28;20056;-61
2023/07/05 00:25:35;;;;;;;3.78;2.60;;;;;;;19.46;80.07;100160.97;5035804;28;20041;-61
2023/07/05 00:28:00;;;;;;;4.13;2.22;;;;;;;19.44;80.19;100149.72;5037647;28;20121;-61
2023/07/05 00:30:26;;;;;;;3.83;2.25;;;;;;;19.43;80.63;100164.59;5035141;28;20037;-61
2023/07/05 00:32:51;;;;;;;5.43;2.65;;;;;;;19.42;80.46;100155.03;5040370;28;20602;-61
2023/07/05 00:35:16;;;;;;;5.07;2.40;;;;;;;19.41;80.50;100161.19;5034411;28;20032;-62
2023/07/05 00:37:42;;;;;;;4.40;2.25;;;;;;;19.40;80.77;100164.78;5042044;28;20035;-61
2023/07/05 00:40:08;;;;;;;5.40;2.67;;;;;;;19.41;81.13;100157.75;5031362;28;20045;-61
2023/07/05 00:42:33;;;;;;;4.53;2.90;;;;;;;19.40;81.62;100161.28;5029431;28;20037;-61
2023/07/05 00:45:10;;;;;;;6.47;3.20;;;;;;;19.38;81.53;100148.28;5034412;28;20053;-60
2023/07/05 00:47:37;;;;;;;5.05;2.63;;;;;;;19.33;82.07;100138.97;5035868;28;20041;-61
2023/07/05 00:50:16;;;;;;;5.30;3.08;;;;;;;19.31;82.10;100138.22;5033800;28;20040;-61
2023/07/05 00:52:42;;;;;;;5.85;2.90;;;;;;;19.28;82.16;100123.50;5040271;28;20707;-61
2023/07/05 00:55:08;;;;;;;5.28;3.08;;;;;;;19.26;82.65;100124.50;5035687;28;20060;-61
2023/07/05 00:57:38;;;;;;;5.47;2.88;;;;;;;19.11;85.28;100134.03;5029391;28;20052;-61
2023/07/05 01:00:07;;;;;;;6.35;2.88;;;;;;;18.87;89.17;100130.94;5039479;28;20089;-63
2023/07/05 01:02:38;;;;;;;5.03;2.67;;;;;;;18.66;90.31;100121.56;5038660;28;20405;-63
2023/07/05 01:05:05;;;;;;;5.20;2.92;;;;;;;18.53;92.32;100123.09;5035398;28;20033;-62
2023/07/05 01:07:31;;;;;;;4.75;2.55;;;;;;;18.42;93.15;100128.88;5034494;28;20045;-62
2023/07/05 01:09:56;;;;;;;5.68;2.80;;;;;;;18.37;94.67;100130.03;5039204;28;20052;-62
2023/07/05 01:12:35;;;;;;;5.13;2.63;;;;;;;18.35;95.16;100130.09;5037530;28;20041;-63
2023/07/05 01:15:10;;;;;;;4.47;2.13;;;;;;;18.40;92.70;100119.44;5032175;28;20087;-62
2023/07/05 01:17:44;;;;;;;2.10;1.65;;;;;;;18.41;93.01;100118.47;5037337;28;20113;-62
2023/07/05 01:20:24;;;;;;;4.22;2.10;;;;;;;18.43;93.84;100107.00;5036631;28;20085;-62
2023/07/05 01:23:11;;;;;;;2.45;2.00;;;;;;;18.50;91.87;100097.06;5034232;28;20525;-62
2023/07/05 01:25:43;;;;;;;3.40;2.25;;;;;;;18.50;91.85;100095.31;5035270;28;20139;-62
2023/07/05 01:28:43;;;;;;;2.75;2.08;;;;;;;18.51;91.97;100099.63;5028134;28;20844;-62
2023/07/05 01:31:30;;;;;;;5.75;2.20;;;;;;;18.49;92.12;100108.50;5036890;28;20445;-62
2023/07/05 01:34:07;;;;;;;2.83;1.83;;;;;;;18.57;91.62;100100.22;5035685;28;20069;-62
2023/07/05 01:36:33;;;;;;;3.05;2.05;;;;;;;18.57;91.72;100103.69;5035585;28;20041;-62
2023/07/05 01:38:59;;;;;;;3.03;1.88;;;;;;;18.61;90.98;100105.22;5029706;28;20060;-63
2023/07/05 01:41:24;;;;;;;4.10;2.20;;;;;;;18.62;90.61;100112.16;5030985;28;20395;-62
2023/07/05 01:43:51;;;;;;;3.47;1.60;;;;;;;18.63;90.50;100100.78;5033124;28;20136;-62
2023/07/05 01:46:22;;;;;;;3.08;1.95;;;;;;;18.64;90.74;100091.97;5029899;28;20061;-62
2023/07/05 01:49:13;;;;;;;3.97;1.88;;;;;;;18.64;90.40;100101.63;5032718;28;20099;-62
2023/07/05 01:51:45;;;;;;;7.15;1.90;;;;;;;18.66;90.55;100094.53;5031862;28;20450;-62
2023/07/05 01:54:34;;;;;;;2.38;1.90;;;;;;;18.69;89.42;100074.28;5031386;28;20060;-62
2023/07/05 01:57:13;;;;;;;5.38;2.20;;;;;;;18.72;89.34;100079.34;5026970;28;20037;-62
2023/07/05 01:59:55;;;;;;;6.18;2.00;;;;;;;18.75;90.02;100073.94;5036654;28;20108;-62
2023/07/05 02:02:25;;;;;;;4.13;1.80;;;;;;;18.80;89.41;100060.59;5037404;28;20025;-62
2023/07/05 02:04:50;;;;;;;2.47;1.77;;;;;;;18.81;88.66;100049.22;5037839;28;20036;-62
2023/07/05 02:07:16;;;;;;;2.88;1.73;;;;;;;18.84;88.47;100044.69;5038382;28;20582;-62
2023/07/05 02:09:42;;;;;;;2.78;1.60;;;;;;;18.87;87.89;100047.16;5037093;28;20037;-62
2023/07/05 02:12:08;;;;;;;3.22;1.40;;;;;;;18.89;88.22;100041.81;5035081;28;20037;-62
2023/07/05 02:14:34;;;;;;;3.10;2.05;;;;;;;18.91;88.27;100034.72;5035163;28;20126;-62
2023/07/05 02:16:59;;;;;;;2.83;1.77;;;;;;;18.90;88.48;100044.38;5036537;28;20037;-62
2023/07/05 02:19:25;;;;;;;2.53;1.80;;;;;;;18.86;88.63;100042.81;5036148;28;20743;-62
2023/07/05 02:21:51;;;;;;;2.03;1.73;;;;;;;18.82;89.60;100035.19;5036686;28;20697;-62
2023/07/05 02:24:16;;;;;;;3.20;2.00;;;;;;;18.72;90.23;100044.47;5033258;28;20045;-62
2023/07/05 02:26:42;;;;;;;3.55;2.20;;;;;;;18.64;92.14;100050.09;5033691;28;20040;-62
2023/07/05 02:29:07;;;;;;;2.72;1.98;;;;;;;18.57;93.17;100059.19;5035043;28;20430;-63
2023/07/05 02:31:34;;;;;;;6.30;2.30;;;;;;;18.48;94.92;100055.28;5039560;28;20037;-63
2023/07/05 02:34:00;;;;;;;5.80;2.50;;;;;;;18.41;96.94;100048.69;5039447;28;20112;-65
2023/07/05 02:36:25;;;;;;;5.72;2.25;;;;;;;18.31;97.73;100059.72;5038372;28;20048;-65
2023/07/05 02:38:52;;;;;;;6.90;3.17;;;;;;;18.20;98.53;100062.00;5037667;28;20048;-64
2023/07/05 02:41:18;;;;;;;4.47;2.60;;;;;;;18.11;100.00;100063.31;5038649;28;20025;-65
2023/07/05 02:43:43;;;;;;;8.00;2.75;;;;;;;18.02;100.00;100062.94;5035191;28;20039;-65
2023/07/05 02:46:08;;;;;;;5.97;3.20;;;;;;;17.99;100.00;100073.56;5036710;28;20530;-64
2023/07/05 02:48:34;;;;;;;8.60;3.83;;;;;;;17.95;100.00;100071.09;5038050;28;20499;-66
2023/07/05 02:50:59;;;;;;;7.70;3.40;;;;;;;17.90;100.00;100070.47;5033155;28;20488;-66
2023/07/05 02:53:25;;;;;;;6.88;3.10;;;;;;;17.85;100.00;100089.91;5036102;28;20028;-65
2023/07/05 02:55:51;;;;;;;6.30;3.05;;;;;;;17.82;100.00;100077.81;5038897;28;20028;-66
2023/07/05 02:58:17;;;;;;;4.25;2.40;;;;;;;17.80;100.00;100090.13;5032448;28;20063;-65
2023/07/05 03:00:43;;;;;;;3.60;2.28;;;;;;;17.71;100.00;100098.41;5036970;28;20471;-65
2023/07/05 03:03:08;;;;;;;3.60;2.38;;;;;;;17.67;100.00;100091.63;5034300;28;20045;-65
2023/07/05 03:05:34;;;;;;;3.85;2.47;;;;;;;17.62;100.00;100098.00;5034385;28;20040;-65
2023/07/05 03:07:59;;;;;;;4.53;2.13;;;;;;;17.60;100.00;100105.06;5030891;28;20037;-66
2023/07/05 03:10:24;;;;;;;4.63;2.53;;;;;;;17.54;100.00;100100.13;5039581;28;20130;-66
2023/07/05 03:12:50;;;;;;;6.10;2.63;;;;;;;17.46;100.00;100107.47;5036758;28;20033;-66
2023/07/05 03:15:15;;;;;;;3.83;2.35;;;;;;;17.36;100.00;100120.94;5035620;28;20157;-66
2023/07/05 03:17:40;;;;;;;3.33;1.92;;;;;;;17.26;100.00;100104.03;5034219;28;20152;-65
2023/07/05 03:20:06;;;;;;;3.05;2.22;;;;;;;17.17;100.00;100114.88;5036707;28;20635;-66
2023/07/05 03:22:32;;;;;;;4.45;2.60;;;;;;;17.11;100.00;100128.22;5035384;28;20055;-66
2023/07/05 03:24:57;;;;;;;3.30;1.95;;;;;;;16.96;100.00;100128.91;5035921;28;20175;-66
2023/07/05 03:27:23;;;;;;;2.72;1.88;;;;;;;16.80;100.00;100131.34;5035859;28;20033;-66
2023/07/05 03:29:50;;;;;;;3.85;2.10;;;;;;;16.69;100.00;100141.38;5034335;28;20048;-66
2023/07/05 03:32:15;;;;;;;3.85;1.70;;;;;;;16.58;100.00;100154.03;5036195;28;20033;-64
2023/07/05 03:34:41;;;;;;;2.53;1.70;;;;;;;16.51;100.00;100157.81;5040994;28;20474;-66
2023/07/05 03:37:06;;;;;;;4.25;1.92;;;;;;;16.40;100.00;100162.63;5035298;28;20072;-65
2023/07/05 03:39:32;;;;;;;2.78;1.60;;;;;;;16.35;100.00;100163.75;5042069;28;20071;-66
2023/07/05 03:41:57;;;;;;;3.95;2.15;;;;;;;16.29;100.00;100159.63;5034541;28;20076;-65
2023/07/05 03:44:24;;;;;;;5.20;2.38;;;;;;;16.22;100.00;100158.19;5044461;28;20057;-65
2023/07/05 03:46:50;;;;;;;2.50;1.80;;;;;;;16.22;100.00;100161.63;5032469;28;20040;-65
2023/07/05 03:49:16;;;;;;;3.33;2.00;;;;;;;16.20;100.00;100178.25;5034771;28;20395;-65
2023/07/05 03:51:41;;;;;;;3.70;1.88;;;;;;;16.16;100.00;100193.19;5032270;28;20040;-65
2023/07/05 03:54:07;;;;;;;3.05;2.03;;;;;;;16.10;100.00;100209.06;5036590;28;20546;-65
2023/07/05 03:56:34;;;;;;;2.60;1.75;;;;;;;16.07;100.00;100213.53;5035034;28;20120;-65
2023/07/05 03:58:59;;;;;;;2.83;1.52;;;;;;;15.98;100.00;100206.09;5038276;28;20037;-64
2023/07/05 04:01:27;;;;;;;2.78;1.83;;;;;;;15.88;99.95;100220.41;5047460;28;20037;-65
2023/07/05 04:03:55;;;;;;;2.92;2.00;;;;;;;15.77;98.13;100231.22;5047245;28;20099;-65
2023/07/05 04:06:22;;;;;;;3.28;1.58;;;;;;;15.73;98.01;100240.09;5042626;28;20040;-65
2023/07/05 04:08:47;;;;;;;2.85;1.73;;;;;;;15.69;97.43;100241.94;5041147;28;20044;-64
2023/07/05 04:11:13;;;;;;;2.03;1.40;;;;;;;15.67;97.46;100243.75;5031738;28;20021;-64
2023/07/05 04:13:38;;;;;;;4.25;1.73;;;;;;;15.63;95.38;100250.00;5033109;28;20438;-65
2023/07/05 04:16:08;;;;;;;2.38;1.50;;;;;;;15.61;94.37;100250.94;5038974;28;20737;-64
2023/07/05 04:18:34;;;;;;;6.35;1.50;;;;;;;15.58;92.72;100258.84;5030507;28;20045;-65
2023/07/05 04:21:00;;;;;;;3.38;2.10;;;;;;;15.56;93.38;100260.66;5032995;28;20044;-63
2023/07/05 04:23:26;;;;;;;3.25;1.92;;;;;;;15.52;92.61;100261.69;5032302;28;20102;-64
2023/07/05 04:26:03;;;;;;;2.40;1.65;;;;;;;15.50;90.82;100274.75;5034923;28;20040;-64
2023/07/05 04:28:30;;;;;;;2.97;2.13;;;;;;;15.51;90.67;100273.84;5029753;28;20045;-64
2023/07/05 04:30:56;;;;;;;2.67;1.63;;;;;;;15.52;90.40;100272.94;5032764;28;20715;-65
2023/07/05 04:33:21;;;;;;;2.47;1.65;;;;;;;15.51;90.14;100276.47;5034151;28;20037;-64
2023/07/05 04:35:55;;;;;;;3.42;1.80;;;;;;;15.46;90.31;100282.75;5043170;28;20333;-64
2023/07/05 04:38:20;;;;;;;2.93;2.00;;;;;;;15.41;89.59;100287.25;5032408;28;21270;-64
2023/07/05 04:40:46;;;;;;;3.42;2.00;;;;;;;15.39;90.25;100276.03;5032569;28;20040;-64
2023/07/05 04:43:11;;;;;;;3.75;1.60;;;;;;;15.34;89.81;100289.25;5031459;28;20087;-64
2023/07/05 04:45:36;;;;;;;4.25;2.10;;;;;;;15.37;89.62;100293.47;5035081;28;20509;-63
2023/07/05 04:48:02;;;;;;;4.82;2.58;;;;;;;15.42;88.39;100295.00;5034034;28;20069;-64
2023/07/05 04:50:27;;;;;;;2.95;2.00;;;;;;;15.48;88.00;100291.34;5030720;28;20081;-64
2023/07/05 04:52:54;;;;;;;4.20;2.33;;;;;;;15.54;88.07;100299.78;5031445;28;20198;-64
2023/07/05 04:55:19;;;;;;;3.13;2.20;;;;;;;15.60;87.18;100290.91;5027229;28;20146;-64
2023/07/05 04:57:45;;;;;;;3.88;2.10;;;;;;;15.61;84.40;100295.22;5032341;28;20565;-64
2023/07/05 05:00:11;;;;;;;4.32;2.67;;;;;;;15.65;85.60;100300.28;5030067;28;20567;-65
2023/07/05 05:02:37;;;;;;;4.07;2.40;;;;;;;15.67;84.36;100298.44;5032133;28;20470;-64
2023/07/05 05:05:03;;;;;;;3.78;2.55;;;;;;;15.68;83.73;100305.38;5035455;28;20044;-64
2023/07/05 05:07:28;;;;;;;4.57;2.72;;;;;;;15.70;83.11;100308.78;5030839;28;20441;-63
2023/07/05 05:09:54;;;;;;;4.95;2.75;;;;;;;15.72;82.64;100304.38;5034426;28;20056;-63
2023/07/05 05:12:19;;;;;;;4.65;2.85;;;;;;;15.73;82.15;100307.84;5031534;28;20595;-63
2023/07/05 05:14:45;;;;;;;5.13;2.67;;;;;;;15.73;81.02;100311.25;5031179;28;20049;-63
2023/07/05 05:17:10;;;;;;;4.57;2.35;;;;;;;15.76;80.87;100308.53;5032859;28;20064;-62
2023/07/05 05:19:36;;;;;;;5.03;2.72;;;;;;;15.79;79.97;100320.59;5033501;28;20064;-62
2023/07/05 05:22:01;;;;;;;5.22;3.10;;;;;;;15.80;79.47;100318.84;5032740;28;20568;-63
2023/07/05 05:24:26;;;;;;;4.53;2.80;;;;;;;15.82;78.86;100311.84;5029484;28;20037;-62
2023/07/05 05:26:54;;;;;;;5.03;3.08;;;;;;;15.87;78.51;100320.34;5028673;28;20037;-63
2023/07/05 05:29:19;;;;;;;5.47;3.17;;;;;;;15.91;79.20;100322.75;5028161;28;20037;-62
2023/07/05 05:31:44;;;;;;;4.07;2.85;;;;;;;15.97;78.56;100321.72;5034391;28;20044;-63
2023/07/05 05:34:10;;;;;;;5.13;3.05;;;;;;;16.03;76.58;100314.47;5036577;28;20041;-63
2023/07/05 05:36:35;;;;;;;6.78;3.03;;;;;;;16.15;76.51;100323.59;5034545;28;20429;-62
2023/07/05 05:39:01;;;;;;;7.20;3.28;;;;;;;16.20;75.69;100316.47;5035479;28;20041;-63
2023/07/05 05:41:26;;;;;;;5.47;3.17;;;;;;;16.25;74.98;100309.31;5040800;28;20082;-63
2023/07/05 05:43:51;;;;;;;5.18;3.70;;;;;;;16.34;74.02;100311.56;5036199;28;20131;-64
2023/07/05 05:46:17;;;;;;;5.72;3.75;;;;;;;16.45;74.60;100317.19;5033707;28;20418;-62
2023/07/05 05:48:42;;;;;;;7.20;3.55;;;;;;;16.73;73.42;100309.97;5030412;28;21110;-62
2023/07/05 05:51:08;;;;;;;4.57;3.15;;;;;;;16.83;74.35;100331.34;5034513;28;20456;-62
2023/07/05 05:53:34;;;;;;;4.50;3.10;;;;;;;16.81;74.21;100328.81;5034884;28;20025;-62
2023/07/05 05:55:59;;;;;;;4.43;2.90;;;;;;;16.69;73.59;100320.59;5042239;28;20017;-61
2023/07/05 05:58:25;;;;;;;7.03;2.75;;;;;;;16.61;73.72;100331.34;5028484;28;20159;-63
2023/07/05 06:00:51;;;;;;;5.00;3.17;;;;;;;16.51;74.76;100340.44;5035444;28;20032;-63
2023/07/05 06:03:16;;;;;;;7.10;3.25;;;;;;;16.55;73.20;100326.38;5038603;28;20044;-64
2023/07/05 06:05:42;;;;;;;4.28;2.95;;;;;;;16.72;72.96;100330.91;5033729;28;20055;-64
2023/07/05 06:08:07;;;;;;;5.07;3.15;;;;;;;16.77;70.99;100310.75;5037066;28;20111;-63
2023/07/05 06:10:35;;;;;;;5.53;2.70;;;;;;;16.75;69.03;100294.25;5041471;28;20485;-63
2023/07/05 06:13:00;;;;;;;4.53;2.60;;;;;;;16.76;69.33;100302.03;5035989;28;20589;-64
2023/07/05 06:15:26;;;;;;;5.15;2.83;;;;;;;16.78;68.67;100308.06;5032290;28;20047;-64
2023/07/05 06:17:53;;;;;;;5.60;2.55;;;;;;;16.77;66.92;100264.59;5030812;28;20163;-63
2023/07/05 06:20:18;;;;;;;5.45;2.42;;;;;;;16.86;66.55;100285.09;5033193;28;20029;-63
2023/07/05 06:22:44;;;;;;;5.50;3.17;;;;;;;17.04;66.19;100288.69;5035723;28;20039;-63
2023/07/05 06:25:10;;;;;;;5.80;2.78;;;;;;;17.31;63.61;100263.16;5031438;28;20128;-63
2023/07/05 06:27:36;;;;;;;5.88;2.40;;;;;;;17.54;62.61;100259.53;5032004;28;20132;-63
2023/07/05 06:30:02;;;;;;;5.70;2.60;;;;;;;17.58;62.76;100279.38;5030364;28;20072;-64
2023/07/05 06:32:28;;;;;;;5.28;2.67;;;;;;;17.73;62.52;100286.53;5030474;28;20982;-64
2023/07/05 06:34:53;;;;;;;3.47;2.42;;;;;;;17.74;62.71;100294.31;5036252;28;20039;-64
2023/07/05 06:37:18;;;;;;;4.85;2.58;;;;;;;17.80;62.37;100295.78;5028686;28;20037;-65
2023/07/05 06:39:44;;;;;;;4.15;1.92;;;;;;;17.76;63.33;100315.13;5025699;28;20064;-63
2023/07/05 06:42:09;;;;;;;5.70;2.72;;;;;;;17.71;62.37;100309.28;5033942;28;20426;-63
2023/07/05 06:44:35;;;;;;;6.60;2.53;;;;;;;17.57;62.68;100328.19;5031100;28;20052;-63
2023/07/05 06:47:00;;;;;;;3.67;2.08;;;;;;;17.44;63.68;100347.94;5036303;28;20025;-62
2023/07/05 06:49:26;;;;;;;3.35;2.00;;;;;;;17.30;62.08;100327.63;5033703;28;20033;-63
2023/07/05 06:51:53;;;;;;;2.90;1.80;;;;;;;17.30;62.60;100339.84;5035074;28;20044;-63
2023/07/05 06:54:20;;;;;;;3.85;1.70;;;;;;;17.46;63.93;100380.06;5033577;28;20073;-63
2023/07/05 06:56:45;;;;;;;4.03;2.05;;;;;;;17.63;62.48;100342.75;5033315;28;20044;-62
2023/07/05 06:59:10;;;;;;;5.38;2.25;;;;;;;17.77;61.14;100316.84;5045535;28;20056;-63
2023/07/05 07:01:36;;;;;;;4.82;2.10;;;;;;;17.84;60.65;100316.53;5037094;28;20029;-63
2023/07/05 07:04:05;;;;;;;4.32;2.45;;;;;;;17.85;60.24;100317.38;5033454;28;20041;-63
2023/07/05 07:06:31;;;;;;;2.90;2.20;;;;;;;17.95;61.00;100334.34;5036358;28;20049;-63
2023/07/05 07:08:56;;;;;;;3.33;1.80;;;;;;;18.02;60.88;100322.69;5034877;28;20033;-63
2023/07/05 07:11:21;;;;;;;4.68;2.13;;;;;;;18.00;60.72;100319.31;5037934;28;20040;-64
2023/07/05 07:13:47;;;;;;;4.55;1.60;;;;;;;17.88;61.20;100330.31;5033020;28;20029;-62
2023/07/05 07:16:15;;;;;;;2.83;1.50;;;;;;;18.05;60.21;100317.31;5035992;28;20648;-62
2023/07/05 07:18:48;;;;;;;3.80;1.85;;;;;;;18.00;59.83;100324.53;5032327;28;20072;-63
2023/07/05 07:21:15;;;;;;;4.45;1.70;;;;;;;18.05;58.56;100314.69;5035261;28;20040;-63
2023/07/05 07:23:41;;;;;;;3.92;1.95;;;;;;;18.06;59.25;100328.63;5038386;28;20060;-62
2023/07/05 07:26:10;;;;;;;4.43;1.58;;;;;;;18.13;59.40;100332.66;5031265;28;20033;-62
2023/07/05 07:28:36;;;;;;;3.88;1.58;;;;;;;18.23;59.38;100337.38;5036312;28;20048;-62
2023/07/05 07:31:22;;;;;;;3.45;1.60;;;;;;;18.34;59.72;100344.75;5036067;28;20037;-63
2023/07/05 07:33:48;;;;;;;2.55;1.77;;;;;;;18.17;59.86;100353.38;5034557;28;20037;-63
2023/07/05 07:36:17;;;;;;;3.20;1.48;;;;;;;17.95;60.64;100379.66;5031263;28;20037;-62
2023/07/05 07:38:43;;;;;;;3.72;1.38;;;;;;;17.73;60.22;100373.66;5032054;28;20041;-62
2023/07/05 07:41:20;;;;;;;3.85;1.80;;;;;;;17.64;60.10;100375.81;5031179;28;20029;-62
2023/07/05 07:43:46;;;;;;;2.28;1.33;;;;;;;17.85;61.59;100394.06;5032024;28;20194;-61
2023/07/05 07:46:14;;;;;;;2.08;1.25;;;;;;;17.91;59.78;100361.56;5032580;28;20570;-60
2023/07/05 07:48:41;;;;;;;2.53;1.38;;;;;;;17.83;59.46;100358.41;5025108;28;20040;-60
2023/07/05 07:51:07;;;;;;;2.45;1.17;;;;;;;17.84;59.95;100375.81;5026898;28;20044;-61
2023/07/05 07:53:32;;;;;;;3.13;1.27;;;;;;;18.03;59.47;100350.53;5026890;28;20689;-60
2023/07/05 07:55:58;;;;;;;3.75;1.13;;;;;;;18.06;57.76;100324.25;5028014;28;20041;-61
2023/07/05 07:58:23;;;;;;;2.38;1.25;;;;;;;18.26;58.26;100341.63;5028441;28;20055;-60
2023/07/05 08:00:49;;;;;;;2.95;1.33;;;;;;;18.53;57.61;100337.72;5037160;28;20037;-61
2023/07/05 08:03:14;;;;;;;3.22;1.23;;;;;;;18.78;56.85;100330.41;5040203;28;20040;-60
2023/07/05 08:05:39;;;;;;;4.30;1.33;;;;;;;18.94;56.15;100326.13;5032945;28;20045;-60
2023/07/05 08:08:05;;;;;;;3.15;1.40;;;;;;;18.87;54.99;100314.25;5038247;28;20131;-61
2023/07/05 08:10:30;;;;;;;1.77;0.82;;;;;;;18.94;55.17;100326.13;5038136;28;20124;-61
2023/07/05 08:12:57;;;;;;;2.53;1.13;;;;;;;18.67;54.97;100347.56;5025630;28;20041;-61
2023/07/05 08:15:23;;;;;;;2.70;1.08;;;;;;;18.39;55.77;100364.56;5032616;28;20140;-60
2023/07/05 08:17:49;;;;;;;1.73;1.00;;;;;;;18.24;55.09;100353.94;5033307;28;20045;-61
2023/07/05 08:20:14;;;;;;;2.47;0.75;;;;;;;18.17;55.86;100384.75;5034211;28;20043;-60
2023/07/05 08:22:40;;;;;;;1.88;0.90;;;;;;;18.15;56.21;100398.84;5037899;28;20662;-61
2023/07/05 08:25:05;;;;;;;1.92;0.93;;;;;;;18.23;55.91;100394.09;5037431;28;20096;-62
2023/07/05 08:27:31;;;;;;;3.67;0.75;;;;;;;18.32;55.15;100375.34;5043497;28;20037;-63
2023/07/05 08:29:56;;;;;;;4.22;1.23;;;;;;;18.54;53.94;100355.13;5032883;28;20037;-63
2023/07/05 08:32:21;;;;;;;3.40;1.08;;;;;;;18.79;54.07;100368.72;5036889;28;20538;-63
2023/07/05 08:34:48;;;;;;;2.72;1.08;;;;;;;18.95;52.80;100343.53;5038270;28;20033;-62
2023/07/05 08:37:13;;;;;;;2.88;1.10;;;;;;;19.22;53.37;100357.03;5037211;28;20033;-63
2023/07/05 08:39:38;;;;;;;5.85;1.20;;;;;;;19.42;51.97;100337.66;5036325;28;20048;-63
2023/07/05 08:42:20;;;;;;;4.78;1.23;;;;;;;19.67;51.78;100343.34;5027791;28;20690;-63
2023/07/05 08:45:27;;;;;;;4.40;0.90;;;;;;;20.04;50.26;100329.13;5032435;28;20036;-63
2023/07/05 08:47:57;;;;;;;4.25;0.80;;;;;;;19.94;48.72;100318.31;4971017;28;20053;-62
2023/07/05 08:50:29;;;;;;;3.25;1.02;;;;;;;20.10;50.13;100336.69;5023650;28;20041;-64
2023/07/05 08:53:08;;;;;;;2.63;0.75;;;;;;;20.15;50.26;100351.28;5032452;28;20039;-63
2023/07/05 08:55:46;;;;;;;3.65;0.90;;;;;;;19.62;49.26;100333.09;5025155;28;20063;-63
2023/07/05 08:58:19;;;;;;;4.05;0.98;;;;;;;19.46;51.50;100381.16;5029378;28;20040;-63
2023/07/05 09:00:55;;;;;;;3.47;1.10;;;;;;;19.25;50.80;100388.31;5033120;28;20625;-63
2023/07/05 09:03:22;;;;;;;4.15;1.27;;;;;;;19.21;52.15;100401.63;5030406;28;20402;-63
2023/07/05 09:05:55;;;;;;;4.78;1.27;;;;;;;19.42;51.18;100382.22;5038796;28;20519;-63
2023/07/05 09:08:32;;;;;;;5.05;1.00;;;;;;;19.45;50.73;100385.53;5036720;28;20032;-63
2023/07/05 09:11:27;;;;;;;3.38;1.42;;;;;;;19.41;49.17;100362.19;5035050;28;20021;-63
2023/07/05 09:14:08;;;;;;;2.78;1.10;;;;;;;19.67;48.34;100352.97;5033079;28;20044;-63
2023/07/05 09:17:01;;;;;;;5.05;1.00;;;;;;;19.76;49.86;100381.34;5033070;28;20914;-63
2023/07/05 09:19:44;;;;;;;2.53;1.40;;;;;;;19.94;49.02;100360.28;5026495;28;20375;-63
2023/07/05 09:22:17;;;;;;;5.13;1.02;;;;;;;20.16;49.51;100394.09;5034733;28;20076;-60
2023/07/05 09:24:44;;;;;;;4.53;1.10;;;;;;;20.32;47.24;100352.97;5032383;28;20122;-60
2023/07/05 09:27:17;;;;;;;3.47;1.05;;;;;;;20.19;46.91;100351.94;5034991;28;20645;-61
2023/07/05 09:29:50;;;;;;;3.30;1.10;;;;;;;20.21;48.51;100385.97;5029180;28;20040;-61
2023/07/05 09:32:26;;;;;;;2.40;1.00;;;;;;;20.07;48.16;100391.94;5031369;28;20033;-61
2023/07/05 09:34:58;;;;;;;7.13;1.60;;;;;;;19.99;47.49;100378.41;5036538;28;20029;-60
2023/07/05 09:37:35;;;;;;;1.80;1.00;;;;;;;19.89;46.77;100370.16;5032854;28;20053;-60
2023/07/05 09:40:20;;;;;;;2.75;0.95;;;;;;;20.30;46.40;100375.84;5029054;28;20192;-60
2023/07/05 09:42:53;;;;;;;3.42;1.17;;;;;;;20.42;45.89;100369.06;5030479;28;20049;-61
2023/07/05 09:45:19;;;;;;;8.18;1.30;;;;;;;20.52;45.63;100383.38;5026687;28;20068;-61
2023/07/05 09:47:47;;;;;;;3.50;0.90;;;;;;;20.69;47.08;100406.94;5031157;28;20712;-61
2023/07/05 09:50:18;;;;;;;2.25;0.77;;;;;;;20.84;46.09;100381.63;5034693;28;20037;-61
2023/07/05 09:52:59;;;;;;;3.45;1.30;;;;;;;21.30;45.44;100380.66;5035219;28;20044;-61
2023/07/05 09:55:28;;;;;;;6.57;1.33;;;;;;;21.29;46.04;100378.94;5028629;28;20056;-62
2023/07/05 09:57:54;;;;;;;2.47;1.10;;;;;;;21.11;45.06;100372.13;5028653;28;20132;-62
2023/07/05 10:00:23;;;;;;;2.05;1.00;;;;;;;20.98;44.61;100371.16;5034198;28;20033;-62
2023/07/05 10:02:51;;;;;;;5.15;1.25;;;;;;;21.30;43.90;100364.03;5031040;28;20037;-62
2023/07/05 10:05:29;;;;;;;2.42;1.13;;;;;;;21.47;42.72;100338.44;5034549;28;20024;-62
2023/07/05 10:07:59;;;;;;;4.18;1.13;;;;;;;21.56;42.91;100350.22;5032119;28;20025;-61
2023/07/05 10:10:27;;;;;;;5.28;1.33;;;;;;;21.58;42.67;100348.34;5038646;28;20066;-61
2023/07/05 10:13:11;;;;;;;3.22;1.30;;;;;;;21.51;43.95;100365.41;5030231;28;20128;-61
2023/07/05 10:15:49;;;;;;;4.72;1.17;;;;;;;21.80;42.63;100359.25;5031023;28;20048;-62
2023/07/05 10:18:32;;;;;;;5.38;1.10;;;;;;;21.90;41.32;100339.34;5032156;28;20170;-61
2023/07/05 10:21:01;;;;;;;3.20;1.20;;;;;;;21.96;40.81;100332.84;5034637;28;20033;-61
2023/07/05 10:23:30;;;;;;;4.63;1.30;;;;;;;22.01;41.13;100336.88;5033484;28;20043;-65
2023/07/05 10:26:02;;;;;;;4.72;1.52;;;;;;;22.01;40.80;100330.78;5040046;28;20035;-64
2023/07/05 10:28:29;;;;;;;5.15;1.40;;;;;;;22.02;39.31;100308.78;5034465;28;20036;-64
2023/07/05 10:31:00;;;;;;;2.65;1.05;;;;;;;21.91;39.77;100327.03;5033077;28;20033;-63
2023/07/05 10:33:27;;;;;;;8.43;1.65;;;;;;;21.35;40.06;100335.69;5036969;28;20037;-64
2023/07/05 10:36:02;;;;;;;4.75;1.40;;;;;;;21.42;40.22;100331.75;5037206;28;20160;-65
2023/07/05 10:38:32;;;;;;;3.08;1.27;;;;;;;21.96;40.03;100349.50;5036314;28;20044;-63
2023/07/05 10:41:21;;;;;;;5.20;1.15;;;;;;;21.68;40.24;100350.31;5026209;28;20087;-64
2023/07/05 10:43:52;;;;;;;4.13;1.00;;;;;;;21.87;39.21;100349.22;5031357;28;20041;-64
2023/07/05 10:46:22;;;;;;;6.13;1.52;;;;;;;22.08;38.26;100317.16;5039922;28;20064;-64
2023/07/05 10:48:49;;;;;;;18.55;1.40;;;;;;;21.74;39.71;100339.44;5046642;28;20044;-64
2023/07/05 10:51:21;;;;;;;7.75;1.45;;;;;;;21.94;39.62;100356.63;5040042;28;20041;-65
2023/07/05 10:54:09;;;;;;;3.65;1.35;;;;;;;21.99;39.47;100330.88;5037696;28;20072;-64
2023/07/05 10:56:37;;;;;;;4.28;1.10;;;;;;;22.59;38.42;100341.97;5034803;28;20097;-65
2023/07/05 10:59:21;;;;;;;5.18;1.20;;;;;;;22.91;38.26;100329.34;5037982;28;20151;-63
2023/07/05 11:02:00;;;;;;;5.50;1.10;;;;;;;22.77;36.74;100321.47;5040236;28;20061;-64
2023/07/05 11:04:29;;;;;;;3.03;1.20;;;;;;;22.36;36.45;100311.81;5033680;28;20123;-64
2023/07/05 11:07:01;;;;;;;6.05;1.42;;;;;;;22.28;37.05;100323.78;5030856;28;20033;-64
2023/07/05 11:09:30;;;;;;;2.95;0.93;;;;;;;22.46;38.99;100359.50;5029512;28;20733;-65
2023/07/05 11:12:00;;;;;;;5.75;1.60;;;;;;;22.70;37.70;100349.19;5031178;28;20037;-63
2023/07/05 11:14:28;;;;;;;3.65;1.50;;;;;;;22.36;36.98;100335.50;5029721;28;20029;-64
2023/07/05 11:16:55;;;;;;;6.68;1.60;;;;;;;22.19;37.79;100350.69;5025994;28;20067;-63
2023/07/05 11:19:26;;;;;;;3.63;1.00;;;;;;;22.35;38.30;100359.31;5024075;28;20170;-63
2023/07/05 11:21:52;;;;;;;4.55;1.48;;;;;;;22.49;37.35;100340.88;5023007;28;20174;-65
2023/07/05 11:24:30;;;;;;;4.70;1.80;;;;;;;22.23;37.11;100341.66;5028055;28;20428;-63
2023/07/05 11:26:56;;;;;;;4.90;1.33;;;;;;;22.23;38.24;100368.00;5029667;28;20148;-63
2023/07/05 11:29:24;;;;;;;3.92;1.77;;;;;;;21.97;38.71;100384.56;5031132;28;20025;-64
2023/07/05 11:31:53;;;;;;;6.50;1.30;;;;;;;21.77;38.78;100381.34;5034224;28;20143;-64